This is the latest recevied weather packets stored in our database for station/object CA3DPI. If no packets are shown the sender has not sent any weather packets the latest 10 day(s).
| Time | Temp. | Humidity | Pressure | Rain* | Wind** | Luminosity | Snow |
|---|---|---|---|---|---|---|---|
| 1777627010 | 13.33° C | 52% | 1021.4 hPa | - | - | - | - |
| 1777626410 | 13.89° C | 53% | 1021.5 hPa | - | - | - | - |
| 1777625810 | 13.89° C | 53% | 1021.4 hPa | - | - | - | - |
| 1777625209 | 13.89° C | 54% | 1021.4 hPa | - | - | - | - |
| 1777624617 | 13.89° C | 55% | 1021.5 hPa | - | - | - | - |
| 1777624015 | 13.89° C | 56% | 1021.5 hPa | - | - | - | - |
| 1777623415 | 13.89° C | 56% | 1021.4 hPa | - | - | - | - |
| 1777622815 | 13.89° C | 57% | 1021.3 hPa | - | - | - | - |
| 1777622215 | 13.89° C | 56% | 1021.4 hPa | - | - | - | - |
| 1777621614 | 13.89° C | 59% | 1021.4 hPa | - | - | - | - |
| 1777621013 | 14.44° C | 56% | 1021.1 hPa | - | - | - | - |
| 1777620413 | 13.89° C | 56% | 1021 hPa | - | - | - | - |
| 1777619813 | 13.89° C | 61% | 1021.1 hPa | - | - | - | - |
| 1777619213 | 14.44° C | 55% | 1021 hPa | - | - | - | - |
| 1777618613 | 14.44° C | 56% | 1020.9 hPa | - | - | - | - |
| 1777618013 | 14.44° C | 54% | 1020.7 hPa | - | - | - | - |
| 1777617412 | 15° C | 54% | 1020.8 hPa | - | - | - | - |
| 1777616812 | 14.44° C | 54% | 1020.9 hPa | - | - | - | - |
| 1777616212 | 15° C | 56% | 1020.8 hPa | - | - | - | - |
| 1777615612 | 14.44° C | 54% | 1020.7 hPa | - | - | - | - |
| 1777615012 | 14.44° C | 56% | 1020.8 hPa | - | - | - | - |
| 1777614412 | 14.44° C | 58% | 1020.8 hPa | - | - | - | - |
| 1777613811 | 15° C | 56% | 1020.6 hPa | - | - | - | - |
| 1777613211 | 14.44° C | 55% | 1020.6 hPa | - | - | - | - |
| 1777612611 | 14.44° C | 57% | 1020.7 hPa | - | - | - | - |
* Rain since midnight (hover to see other rain measurements)
** Current wind speed in m/s (hover to see current wind gust speed)